Data for 07/21/2017

Time Sea-Level Adjusted Pressure Absolute Pressure Temperature Relative Humidity Dew Point   
(mb) (inHg) (mb) (inHg) (C) (F) (%) (C) (F)
00:05 1020 30.12 849 25.07 20.2 68.4 26 0.2 32.4
00:10 1020 30.12 849 25.07 20.3 68.5 26 0.3 32.5
00:15 1020 30.12 849 25.07 20.1 68.3 27 0.9 33.6
00:20 1020 30.12 849 25.07 19.6 67.3 29 1.1 33.9
00:25 1020 30.12 849 25.07 19.2 66.5 30 1.2 34.2
00:30 1020 30.12 849 25.07 18.8 65.9 30 1.2 34.1
00:35 1020 30.12 849 25.07 18.8 65.8 31 1.4 34.6
00:40 1020 30.12 849 25.07 18.7 65.7 31 1.4 34.6
00:45 1020 30.12 849 25.07 18.6 65.5 30 1 33.8
00:50 1020 30.12 849 25.07 18.5 65.3 32 1.6 34.8
00:55 1020 30.12 849 25.07 18.1 64.6 33 1.6 34.8
01:00 1020 30.12 849 25.07 17.8 64.1 33 1.4 34.5
01:05 1020 30.12 849 25.07 17.8 64.1 32 1.1 34
01:10 1020 30.12 849 25.07 17.9 64.1 32 0.9 33.6
01:15 1020 30.12 849 25.07 18.1 64.5 30 0.6 33
01:20 1020 30.12 849 25.07 18.2 64.7 30 0.6 33.1
01:25 1020 30.12 849 25.07 18.4 65.1 30 0.5 33
01:30 1020 30.12 849 25.07 18.4 65.1 31 1 33.8
01:35 1020 30.12 849 25.07 17.8 64.1 35 2.1 35.8
01:40 1020 30.12 849 25.07 16.6 61.9 39 2.6 36.7
01:45 1020 30.12 849 25.07 16 60.7 38 1.9 35.4
01:50 1020 30.12 849 25.07 16.2 61.2 37 1.6 34.9
01:55 1020 30.12 849 25.07 16.3 61.4 36 1.5 34.7
02:00 1020 30.12 849 25.07 16.4 61.5 37 1.6 34.9
02:05 1020 30.12 849 25.07 16.3 61.3 38 2.1 35.7
02:10 1020 30.12 849 25.07 15.7 60.3 41 2.7 36.8
02:15 1020 30.12 849 25.07 15.2 59.4 41 2.2 36
02:20 1020 30.12 849 25.07 15.3 59.5 43 2.9 37.3
02:25 1020 30.12 849 25.07 14.9 58.8 44 2.9 37.1
02:30 1020 30.12 849 25.07 14.8 58.7 41 1.6 35
02:35 1020 30.12 849 25.07 15.3 59.5 38 1.1 34
02:40 1020 30.12 849 25.07 15.5 60 38 1.4 34.4
02:45 1020 30.12 850 25.1 15.8 60.4 36 0.6 33.1
02:50 1020 30.12 850 25.1 15.8 60.5 38 1.8 35.2
02:55 1020 30.12 850 25.1 15.3 59.5 40 1.9 35.3
03:00 1020 30.12 850 25.1 15 58.9 41 1.9 35.5
03:05 1020 30.12 850 25.1 14.9 58.8 40 1.5 34.7
03:10 1020 30.12 850 25.1 14.9 58.7 40 1.5 34.8
03:15 1021 30.15 850 25.1 14.9 58.9 39 1.3 34.4
03:20 1021 30.15 850 25.1 15 59 40 1.5 34.8
03:25 1021 30.15 850 25.1 14.8 58.7 40 1.5 34.6
03:30 1021 30.15 850 25.1 14.8 58.6 41 1.7 35
03:35 1021 30.15 850 25.1 14.8 58.6 40 1.3 34.3
03:40 1021 30.15 850 25.1 14.8 58.7 39 1.2 34.1
03:45 1021 30.15 850 25.1 14.8 58.6 40 1.4 34.5
03:50 1021 30.15 850 25.1 14.7 58.4 40 1.4 34.5
03:55 1021 30.15 850 25.1 14.6 58.2 40 1.3 34.4
04:00 1021 30.15 850 25.1 14.4 58 41 1.5 34.7
04:05 1021 30.15 850 25.1 14.3 57.8 41 1.2 34.2
04:10 1021 30.15 850 25.1 14.3 57.7 41 1.2 34.2
04:15 1021 30.15 850 25.1 14.2 57.5 42 1.5 34.7
04:20 1021 30.15 850 25.1 14 57.1 44 1.9 35.3
04:25 1021 30.15 850 25.1 13.7 56.6 46 2.2 36
04:30 1021 30.15 850 25.1 13.3 55.9 46 2 35.6
04:35 1021 30.15 850 25.1 13.1 55.6 46 1.9 35.5
04:40 1021 30.15 850 25.1 13.1 55.5 45 1.6 34.9
04:45 1021 30.15 850 25.1 12.9 55.2 47 1.9 35.5
04:50 1021 30.15 850 25.1 12.9 55.2 46 1.6 34.8
04:55 1021 30.15 850 25.1 13.1 55.6 45 1.4 34.5
05:00 1021 30.15 850 25.1 13.3 55.9 43 0.9 33.7
05:05 1021 30.15 850 25.1 13.5 56.3 42 1 33.8
05:10 1021 30.15 850 25.1 13.6 56.5 43 1.3 34.3
05:15 1021 30.15 851 25.13 13.6 56.4 44 1.5 34.8
05:20 1021 30.15 851 25.13 13.5 56.2 44 1.4 34.5
05:25 1021 30.15 851 25.13 13.4 56 44 1.5 34.7
05:30 1021 30.15 851 25.13 13.3 56 44 1.4 34.5
05:35 1022 30.18 851 25.13 13.3 56 44 1.4 34.5
05:40 1022 30.18 851 25.13 13.3 55.9 44 1.4 34.4
05:45 1022 30.18 851 25.13 13.4 56 44 1.5 34.6
05:50 1022 30.18 851 25.13 13.4 56 45 1.6 34.9
05:55 1022 30.18 851 25.13 13.6 56.4 44 1.5 34.8
06:00 1022 30.18 851 25.13 13.8 56.8 43 1.6 34.8
06:05 1022 30.18 851 25.13 14 57.2 42 1.3 34.4
06:10 1022 30.18 851 25.13 14.2 57.6 41 1.4 34.5
06:15 1022 30.18 851 25.13 14.4 57.9 43 2.1 35.9
06:20 1022 30.18 851 25.13 14.5 58.2 41 1.4 34.6
06:25 1022 30.18 851 25.13 14.8 58.7 41 1.9 35.4
06:30 1022 30.18 851 25.13 15.3 59.5 40 1.9 35.4
06:35 1022 30.18 851 25.13 15.4 59.6 40 2 35.7
06:40 1022 30.18 851 25.13 15.5 59.9 40 2.1 35.8
06:45 1022 30.18 851 25.13 15.7 60.3 41 2.5 36.5
06:50 1022 30.18 851 25.13 16.3 61.3 38 2.1 35.7
06:55 1022 30.18 851 25.13 16.5 61.7 40 3 37.4
07:00 1022 30.18 851 25.13 16.7 62 39 2.8 37
07:05 1022 30.18 851 25.13 17.2 63 34 1.5 34.7
07:10 1022 30.18 851 25.13 17.9 64.3 35 2.6 36.6
07:15 1022 30.18 851 25.13 18.3 65 34 2.4 36.3
07:20 1022 30.18 852 25.16 18.8 65.9 33 2.2 36
07:25 1022 30.18 852 25.16 19.2 66.5 33 2.5 36.5
07:30 1022 30.18 852 25.16 19.4 67 32 2.5 36.5
07:35 1022 30.18 852 25.16 19.7 67.5 32 2.9 37.2
07:40 1022 30.18 852 25.16 19.6 67.3 32 2.6 36.7
07:45 1022 30.18 852 25.16 19.4 66.9 32 2.3 36.1
07:50 1022 30.18 852 25.16 19.2 66.6 33 2.6 36.7
07:55 1022 30.18 852 25.16 19.8 67.6 32 2.8 37.1
08:00 1022 30.18 852 25.16 20.5 68.8 31 3.1 37.5
08:05 1022 30.18 852 25.16 20 68 33 3.2 37.8
08:10 1022 30.18 852 25.16 20.2 68.4 32 3.4 38.1
08:15 1022 30.18 852 25.16 20.4 68.6 30 2.2 35.9
08:20 1022 30.18 852 25.16 20.9 69.7 25 0.2 32.3
08:25 1022 30.18 852 25.16 21.2 70.2 25 0.8 33.4
08:30 1022 30.18 852 25.16 21.5 70.8 24 0.5 32.8
08:35 1022 30.18 852 25.16 21.6 70.9 25 0.7 33.2
08:40 1022 30.18 852 25.16 21.8 71.2 24 0.6 33.1
08:45 1022 30.18 852 25.16 21.9 71.4 25 1.2 34.1
08:50 1022 30.18 852 25.16 22.1 71.8 25 1.4 34.6
08:55 1022 30.18 852 25.16 22.5 72.6 25 1.8 35.3
09:00 1022 30.18 852 25.16 23 73.4 23 1.1 34
09:05 1022 30.18 852 25.16 22.9 73.2 24 1.4 34.5
09:10 1022 30.18 851 25.13 22.6 72.6 24 1.3 34.3
09:15 1022 30.18 851 25.13 22.9 73.2 23 0.9 33.6
09:20 1022 30.18 851 25.13 23.4 74.1 22 1 33.8
09:25 1022 30.18 851 25.13 23.4 74.1 21 0.3 32.5
09:30 1022 30.18 851 25.13 23.2 73.7 22 0.5 33
09:35 1022 30.18 851 25.13 22.8 73 22 0.2 32.4
09:40 1022 30.18 851 25.13 22.8 73.1 22 0.4 32.8
09:45 1022 30.18 851 25.13 23.7 74.6 22 0.8 33.4
09:50 1022 30.18 851 25.13 23.9 75 22 1 33.8
09:55 1022 30.18 851 25.13 22.4 72.3 24 1.1 34
10:00 1022 30.18 851 25.13 22.5 72.5 23 0.8 33.4
10:05 1022 30.18 851 25.13 22.9 73.2 22 0.3 32.5
10:10 1022 30.18 851 25.13 22.9 73.2 23 0.6 33
10:15 1022 30.18 851 25.13 23.9 75.1 21 0.2 32.4
10:20 1022 30.18 851 25.13 23.9 75 22 1 33.7
10:25 1022 30.18 851 25.13 23.9 75 22 1.3 34.3
10:30 1022 30.18 851 25.13 24.5 76.1 21 1.3 34.3
10:35 1022 30.18 851 25.13 24.9 76.7 20 0.4 32.8
10:40 1022 30.18 851 25.13 25.1 77.2 19 0.4 32.8
10:45 1022 30.18 851 25.13 25.3 77.6 20 1 33.8
10:50 1022 30.18 851 25.13 25 77.1 19 0.3 32.6
10:55 1022 30.18 851 25.13 25.6 78.1 19 0.7 33.2
11:00 1022 30.18 851 25.13 25.6 78 20 1.1 34
11:05 1022 30.18 851 25.13 25 77 21 1.2 34.2
11:10 1022 30.18 851 25.13 25.2 77.4 20 1 33.7
11:15 1022 30.18 851 25.13 25.5 77.8 21 1.5 34.8
11:20 1022 30.18 851 25.13 25.5 77.9 21 1.9 35.4
11:25 1022 30.18 851 25.13 25.4 77.8 20 1 33.9
11:30 1022 30.18 851 25.13 25.5 78 20 1.2 34.1
11:35 1022 30.18 851 25.13 26.3 79.3 18 0.6 33.1
11:40 1022 30.18 851 25.13 26.5 79.6 19 1.2 34.2
11:45 1022 30.18 851 25.13 26.1 79 18 -0.1 31.9
11:50 1022 30.18 851 25.13 26.3 79.3 19 1.2 34.1
11:55 1021 30.15 851 25.13 26.6 79.8 18 0.5 32.9
12:00 1021 30.15 851 25.13 26.8 80.2 18 0.9 33.6
12:05 1021 30.15 851 25.13 26 78.8 19 0.8 33.4
12:10 1021 30.15 851 25.13 25.9 78.6 17 -0.5 31
12:15 1021 30.15 851 25.13 26.3 79.3 18 0.3 32.6
12:20 1021 30.15 851 25.13 26.7 80.1 18 0.7 33.3
12:25 1021 30.15 850 25.1 26.4 79.5 19 1.1 34.1
12:30 1021 30.15 850 25.1 26 78.8 19 0.7 33.3
12:35 1021 30.15 850 25.1 26.8 80.3 17 -0.2 31.7
12:40 1021 30.15 850 25.1 27.7 81.9 18 1.6 34.8
12:45 1021 30.15 850 25.1 27.7 81.8 16 0.1 32.3
12:50 1021 30.15 850 25.1 27.8 82 16 0.1 32.2
12:55 1021 30.15 850 25.1 28.3 83 15 -0.1 31.8
13:00 1021 30.15 850 25.1 28.4 83.1 15 -0.3 31.4
13:05 1021 30.15 850 25.1 28.2 82.7 16 0 32
13:10 1021 30.15 850 25.1 27.8 82 18 1.7 35.1
13:15 1021 30.15 850 25.1 28 82.4 16 -0.3 31.5
13:20 1021 30.15 850 25.1 28.3 83 17 0.9 33.6
13:25 1021 30.15 850 25.1 28.3 83 16 0 32
13:30 1021 30.15 850 25.1 28.1 82.6 17 0.8 33.4
13:35 1021 30.15 850 25.1 28.2 82.8 15 -0.2 31.6
13:40 1021 30.15 850 25.1 27.5 81.5 18 1 33.8
13:45 1021 30.15 850 25.1 27.6 81.7 16 -0.6 31
13:50 1021 30.15 850 25.1 27.8 82.1 16 -0.2 31.6
13:55 1020 30.12 850 25.1 28.4 83.2 15 -0.6 30.8
14:00 1020 30.12 850 25.1 28.4 83.1 15 -0.2 31.7
14:05 1020 30.12 850 25.1 28.2 82.7 15 -0.8 30.5
14:10 1020 30.12 850 25.1 28.2 82.8 16 0.7 33.2
14:15 1020 30.12 850 25.1 28.2 82.7 16 0.7 33.2
14:20 1020 30.12 850 25.1 28.3 82.9 15 -0.3 31.5
14:25 1020 30.12 850 25.1 28.5 83.2 15 -0.3 31.4
14:30 1020 30.12 850 25.1 28.2 82.8 15 -0.6 30.8
14:35 1020 30.12 850 25.1 28 82.5 15 -0.6 31
14:40 1020 30.12 850 25.1 27.8 82 14 -1.5 29.4
14:45 1020 30.12 850 25.1 28.2 82.8 14 -1.1 30.1
14:50 1020 30.12 849 25.07 28.3 83 14 -0.9 30.3
14:55 1020 30.12 849 25.07 28.2 82.7 15 -1 30.3
15:00 1020 30.12 849 25.07 28.4 83 14 -1.2 29.8
15:05 1020 30.12 849 25.07 27.7 81.9 14 -1.5 29.3
15:10 1020 30.12 849 25.07 28.2 82.8 14 -1.5 29.3
15:15 1020 30.12 849 25.07 28.8 83.8 14 -0.9 30.3
15:20 1020 30.12 849 25.07 28.9 84 14 -1.4 29.5
15:25 1020 30.12 849 25.07 28.8 83.8 13 -1.6 29.2
15:30 1020 30.12 849 25.07 28.7 83.7 14 -1.2 29.9
15:35 1020 30.12 849 25.07 28.9 84.1 13 -1.6 29.1
15:40 1020 30.12 849 25.07 28.1 82.5 13 -2.3 27.8
15:45 1020 30.12 849 25.07 28 82.5 13 -3 26.6
15:50 1020 30.12 849 25.07 28.1 82.5 14 -1.9 28.6
15:55 1020 30.12 849 25.07 28.2 82.8 13 -2.8 27
16:00 1020 30.12 849 25.07 28.2 82.7 13 -2.3 27.8
16:05 1020 30.12 849 25.07 28.1 82.6 12 -3.6 25.5
16:10 1020 30.12 849 25.07 28.1 82.7 12 -3.7 25.4
16:15 1020 30.12 849 25.07 28.2 82.7 13 -2.9 26.9
16:20 1020 30.12 849 25.07 29.1 84.4 12 -2.8 26.9
16:25 1020 30.12 849 25.07 28.9 84 12 -3.2 26.2
16:30 1020 30.12 849 25.07 28.6 83.4 12 -3.3 26.1
16:35 1020 30.12 849 25.07 28 82.5 13 -2.9 26.7
16:40 1020 30.12 849 25.07 28.7 83.6 12 -3.1 26.4
16:45 1020 30.12 849 25.07 29.5 85 12 -3 26.5
16:50 1020 30.12 849 25.07 28.9 84 12 -3.1 26.4
16:55 1020 30.12 849 25.07 28.1 82.6 12 -3.9 25
17:00 1020 30.12 849 25.07 28.4 83.2 13 -2.8 27
17:05 1020 30.12 849 25.07 28.9 84 12 -3.1 26.3
17:10 1020 30.12 849 25.07 29.2 84.6 11 -3.7 25.3
17:15 1020 30.12 849 25.07 29.4 84.9 12 -2.7 27.1
17:20 1020 30.12 849 25.07 29.2 84.6 12 -2.9 26.9
17:25 1020 30.12 849 25.07 28.8 83.9 11 -4.1 24.7
17:30 1020 30.12 849 25.07 29.1 84.4 12 -2.9 26.7
17:35 1020 30.12 849 25.07 28.7 83.6 12 -2.7 27.2
17:40 1020 30.12 849 25.07 28.6 83.4 12 -3.5 25.6
17:45 1020 30.12 849 25.07 28.6 83.5 12 -3.6 25.5
17:50 1020 30.12 849 25.07 28.6 83.5 12 -3.2 26.3
17:55 1020 30.12 849 25.07 28.8 83.8 12 -2.8 26.9
18:00 1020 30.12 849 25.07 28.7 83.7 12 -3.1 26.4
18:05 1019 30.09 849 25.07 28.5 83.3 12 -3.2 26.3
18:10 1019 30.09 849 25.07 28.6 83.5 12 -3.1 26.4
18:15 1020 30.12 849 25.07 28.7 83.6 12 -3.1 26.4
18:20 1020 30.12 849 25.07 28.6 83.4 12 -3.3 26.1
18:25 1020 30.12 849 25.07 28.1 82.7 12 -3.6 25.6
18:30 1020 30.12 849 25.07 28.1 82.5 12 -3.4 26
18:35 1020 30.12 849 25.07 28 82.4 14 -1.9 28.6
18:40 1020 30.12 849 25.07 28 82.3 12 -3.6 25.6
18:45 1020 30.12 849 25.07 27.8 82.1 13 -2.6 27.3
18:50 1020 30.12 849 25.07 27.6 81.7 13 -3.4 25.8
18:55 1020 30.12 849 25.07 27.5 81.5 14 -2 28.4
19:00 1020 30.12 849 25.07 27.4 81.3 14 -2.1 28.1
19:05 1020 30.12 849 25.07 27.2 81 14 -2.7 27.2
19:10 1020 30.12 849 25.07 27.1 80.7 14 -2.3 27.9
19:15 1020 30.12 849 25.07 27 80.5 14 -2.6 27.3
19:20 1020 30.12 849 25.07 26.7 80.1 14 -2.5 27.5
19:25 1020 30.12 849 25.07 26.6 79.8 16 -0.9 30.4
19:30 1020 30.12 849 25.07 26.3 79.3 15 -1.8 28.8
19:35 1020 30.12 849 25.07 26 78.8 16 -1.2 29.8
19:40 1020 30.12 849 25.07 25.8 78.4 17 -1 30.3
19:45 1020 30.12 849 25.07 25.6 78 18 -0.1 31.9
19:50 1020 30.12 849 25.07 25.3 77.5 22 2.3 36.2
19:55 1020 30.12 850 25.1 25.1 77.1 20 0.6 33.1
20:00 1020 30.12 850 25.1 24.8 76.6 19 -0.1 31.9
20:05 1020 30.12 850 25.1 24.6 76.2 20 0.1 32.2
20:10 1021 30.15 850 25.1 24.4 75.9 18 -1.5 29.2
20:15 1021 30.15 850 25.1 24.2 75.5 17 -1.9 28.6
20:20 1021 30.15 850 25.1 23.9 75.1 17 -2.4 27.7
20:25 1021 30.15 850 25.1 23.7 74.7 17 -2.3 27.9
20:30 1021 30.15 850 25.1 23.5 74.2 20 -0.5 31.1
20:35 1021 30.15 850 25.1 23 73.4 27 3.2 37.8
20:40 1021 30.15 850 25.1 22.2 71.9 26 1.8 35.2
20:45 1021 30.15 850 25.1 21.5 70.8 29 3 37.5
20:50 1021 30.15 851 25.13 20.7 69.2 31 3.3 38
20:55 1021 30.15 851 25.13 20.2 68.3 32 3 37.4
21:00 1021 30.15 851 25.13 19.8 67.7 31 2.5 36.4
21:05 1022 30.18 851 25.13 19.5 67.2 30 1.5 34.6
21:10 1022 30.18 851 25.13 19.6 67.3 30 1.9 35.5
21:15 1022 30.18 851 25.13 19.3 66.7 30 1.6 34.9
21:20 1022 30.18 851 25.13 19 66.1 31 1.6 34.9
21:25 1022 30.18 851 25.13 18.8 65.8 31 1.3 34.4
21:30 1022 30.18 851 25.13 18.8 65.9 30 0.8 33.4
21:35 1022 30.18 851 25.13 18.7 65.7 30 1.1 34
21:40 1022 30.18 851 25.13 18.5 65.3 32 1.5 34.7
21:45 1022 30.18 851 25.13 18.2 64.7 32 1.5 34.7
21:50 1022 30.18 851 25.13 17.9 64.2 32 1.3 34.3
21:55 1022 30.18 851 25.13 17.8 64 32 1.2 34.1
22:00 1022 30.18 851 25.13 17.7 63.9 31 0.7 33.2
22:05 1022 30.18 851 25.13 17.7 63.9 32 0.9 33.6
22:10 1022 30.18 852 25.16 17.6 63.7 32 0.9 33.6
22:15 1022 30.18 852 25.16 17.5 63.4 32 0.5 33
22:20 1022 30.18 852 25.16 17.4 63.2 32 0.7 33.2
22:25 1022 30.18 852 25.16 17.4 63.3 31 0.3 32.5
22:30 1022 30.18 852 25.16 17.5 63.6 31 0.4 32.6
22:35 1023 30.21 852 25.16 17.5 63.6 30 -0.1 31.8
22:40 1023 30.21 852 25.16 17.7 63.8 31 0.3 32.5
22:45 1023 30.21 852 25.16 17.3 63.2 32 0.7 33.3
22:50 1023 30.21 852 25.16 16.7 62 34 0.8 33.4
22:55 1023 30.21 852 25.16 16.2 61.1 36 1.1 33.9
23:00 1023 30.21 852 25.16 16 60.7 35 0.6 33.1
23:05 1023 30.21 852 25.16 15.8 60.5 37 1.2 34.2
23:10 1023 30.21 852 25.16 15.6 60 37 1 33.8
23:15 1023 30.21 852 25.16 15.5 59.9 38 1.2 34.1
23:20 1023 30.21 852 25.16 15.2 59.4 39 1.3 34.3
23:25 1023 30.21 852 25.16 15.2 59.3 39 1.3 34.4
23:30 1023 30.21 852 25.16 15 58.9 40 1.4 34.5
23:35 1023 30.21 852 25.16 14.7 58.5 40 1.4 34.5
23:40 1023 30.21 852 25.16 14.7 58.4 40 1.3 34.3
23:45 1023 30.21 852 25.16 14.7 58.5 40 1.4 34.4
23:50 1023 30.21 852 25.16 14.5 58.1 40 1.2 34.1
23:55 1023 30.21 852 25.16 14.4 57.9 41 1.4 34.5
24:00 1023 30.21 853 25.19 14.2 57.6 41 1.3 34.3